Louisville, Kentucky
Current Conditions -  °F | °C
As of 9:56 PM on Wednesday 26 Nov 2014 (Local Time) from KSDF Reporting Station
Overcast Overcast  
Wind Chill: 33°   Ceiling: 6500
Heat Index: 39°   Visibility: 10mi
Dew Point: 29°   Wind: 9mph
Humidity: 67%   Direction: 350°N
Pressure: 30.04"   Gusts: NA
Location:  38.25°N, 85.77°W
Report Text: KSDF 270256Z 35008KT 10SM OVC065 04/M02 A3004 RMK AO2 SLP177 T00391017 50008
Loading
Personal Weather Stations






























Interactive Weather Map New forecast layout! Learn more

10-Day Weather Forecast

Advertisements
Track Severe Weather on mobile